Terminal Aerodrome Forecast
Issued by NWS Topeka, KS

Home | Current Version | Previous Version | Text Only | Print | Product List | Glossary On
Versions: 1 2 3 4 5 6 7 8 9 10 11 12 13 14 15 16
448
FTUS43 KTOP 031123
TAFTOP
TAF
KTOP 031123Z 0312/0412 VRB03KT P6SM OVC150
     FM032100 11006KT P6SM VCSH OVC070
     FM040000 09004KT 6SM -SHRA BR OVC045
     FM040400 13004KT 2SM -SHRA BR OVC025
     FM040700 17004KT 1 1/2SM -SHRA BR OVC010=

USA.gov is the U.S. government's official web portal to all federal, state and local government web resources and services.